aviador You're here:

LKTB Decoded Metar

TURANY in CZECH REPUBLIC
Report Time2017-11-25 07:30:00
UTC Time2017-11-25 07:38:35
Flight Rules lifr LIFR
Wind120° at 06 kt
W.Decomp.*RWY 10: 5.7 kt HW 1.8 kt RCW
RWY 09: 5.3 kt HW 2.7 kt RCW
W.Rank120° ranks 12
Current wind is below 120° avg. (7.4)
Visibility2000 m
Phenomena:Mist
Clouds:Overcast 002 Hf
Ceiling200 ft
Temp05°C (ISA -8)
Dew Point05°C (100% RH)
AAT1.7°C
QNH1012 hPa
Density Alt-49 ft
Elevation807 ft
Report Wrong Elevation
Raw Report
METAR LKTB 250730Z 12006KT 2000 BR OVC002 05/05 Q1012 NOSIG=

Extra information for LKTB:More info

Metar Taf Metar & Taf Last 4 Metars F.Rules Stats Wind Profile Meteogram Temp Stats Airport Information Weather charts Add Link Nearby VenuesMetar ALERT Operation Metar Decoded Social comments